Terminal Aerodrome Forecast
Issued by NWS

Home | Current Version | Previous Version | Text Only | Print | Product List | Glossary On
Versions: 1 2 3 4 5 6 7 8 9 10 11 12 13 14 15 16 17 18 19
777
FTUS44 KMAF 211354 AAB
TAFFST
TAF AMD
KFST 211354Z 2114/2212 04011KT 5SM BR OVC010
      TEMPO 2114/2116 3SM -FZRA BR OVC004
     FM220300 08008KT P6SM OVC030=

USA.gov is the U.S. government's official web portal to all federal, state and local government web resources and services.